createdAt,value
2018-08-12T00:02:16.321Z,66.50
2018-08-12T00:04:44.920Z,66.50
2018-08-12T00:07:13.608Z,66.50
2018-08-12T00:09:41.989Z,66.60
2018-08-12T00:12:10.759Z,66.90
2018-08-12T00:14:39.470Z,67.30
2018-08-12T00:17:08.280Z,67.50
2018-08-12T00:19:36.862Z,67.50
2018-08-12T00:22:05.639Z,67.70
2018-08-12T00:24:34.152Z,67.70
2018-08-12T00:27:02.943Z,67.80
2018-08-12T00:29:31.826Z,67.80
2018-08-12T00:32:00.678Z,67.90
2018-08-12T00:34:29.376Z,68.30
2018-08-12T00:36:58.201Z,68.70
2018-08-12T00:39:26.556Z,68.80
2018-08-12T00:41:54.958Z,69.10
2018-08-12T00:44:23.707Z,69.20
2018-08-12T00:46:52.467Z,69.40
2018-08-12T00:49:20.940Z,69.40
2018-08-12T00:51:49.581Z,69.40
2018-08-12T00:54:18.051Z,69.60
2018-08-12T00:56:46.517Z,69.70
2018-08-12T00:59:14.963Z,69.50
2018-08-12T01:01:43.585Z,68.80
2018-08-12T01:04:12.422Z,69.10
2018-08-12T01:06:41.335Z,69.30
2018-08-12T01:09:11.808Z,69.20
2018-08-12T01:11:40.350Z,69.60
2018-08-12T01:14:09.525Z,69.70
2018-08-12T01:16:38.016Z,69.70
2018-08-12T01:19:06.538Z,69.80
2018-08-12T01:21:35.105Z,70.00
2018-08-12T01:24:03.697Z,70.00
2018-08-12T01:26:32.477Z,70.10
2018-08-12T01:29:01.031Z,70.10
2018-08-12T01:31:29.363Z,70.00
2018-08-12T01:33:58.107Z,70.00
2018-08-12T01:36:26.602Z,70.10
2018-08-12T01:38:55.044Z,70.00
2018-08-12T01:41:23.496Z,70.00
2018-08-12T01:43:51.923Z,70.00
2018-08-12T01:46:20.754Z,70.00
2018-08-12T01:48:49.750Z,70.10
2018-08-12T01:51:18.167Z,70.10
2018-08-12T01:53:46.612Z,70.10
2018-08-12T01:56:14.927Z,70.20
2018-08-12T01:58:43.295Z,70.00
2018-08-12T02:01:11.710Z,69.80
2018-08-12T02:03:40.414Z,69.90
2018-08-12T02:06:09.648Z,70.20
2018-08-12T02:08:38.115Z,69.90
2018-08-12T02:11:06.723Z,69.80
2018-08-12T02:13:35.143Z,69.70
2018-08-12T02:16:03.967Z,69.70
2018-08-12T02:18:32.694Z,69.40
2018-08-12T02:21:01.230Z,69.30
2018-08-12T02:23:29.683Z,69.40
2018-08-12T02:25:58.389Z,69.40
2018-08-12T02:28:26.971Z,69.40
2018-08-12T02:30:55.352Z,69.40
2018-08-12T02:33:23.947Z,69.30
2018-08-12T02:35:52.332Z,69.50
2018-08-12T02:38:20.711Z,69.60
2018-08-12T02:40:49.625Z,69.70
2018-08-12T02:43:18.260Z,69.80
2018-08-12T02:45:46.837Z,69.90
2018-08-12T02:48:15.402Z,70.00
2018-08-12T02:50:44.390Z,70.10
2018-08-12T02:53:13.127Z,70.30
2018-08-12T02:55:45.331Z,70.60
2018-08-12T02:58:14.160Z,70.60
2018-08-12T03:00:42.916Z,70.60
2018-08-12T03:03:11.564Z,70.70
2018-08-12T03:05:40.653Z,70.90
2018-08-12T03:08:09.293Z,70.80
2018-08-12T03:10:37.629Z,71.30
2018-08-12T03:13:06.546Z,71.40
2018-08-12T03:15:35.484Z,71.50
2018-08-12T03:18:04.341Z,71.60
2018-08-12T03:20:33.037Z,71.60
2018-08-12T03:23:01.800Z,71.70
2018-08-12T03:25:30.444Z,71.90
2018-08-12T03:27:58.887Z,72.10
2018-08-12T03:30:27.455Z,72.20
2018-08-12T03:32:55.936Z,72.40
2018-08-12T03:35:24.368Z,72.70
2018-08-12T03:37:53.076Z,72.60
2018-08-12T03:40:21.420Z,72.80
2018-08-12T03:42:50.073Z,72.90
2018-08-12T03:45:18.536Z,73.10
2018-08-12T03:47:47.196Z,73.20
2018-08-12T03:50:15.891Z,73.30
2018-08-12T03:52:44.736Z,73.40
2018-08-12T03:55:13.191Z,73.70
2018-08-12T03:57:41.700Z,73.70
2018-08-12T04:00:14.249Z,73.80
2018-08-12T04:02:43.068Z,73.90
2018-08-12T04:05:11.808Z,74.10
2018-08-12T04:07:40.601Z,74.20
2018-08-12T04:10:09.538Z,74.30
2018-08-12T04:12:38.075Z,74.30
2018-08-12T04:15:07.559Z,74.50
2018-08-12T04:17:35.891Z,74.60
2018-08-12T04:20:05.323Z,74.60
2018-08-12T04:22:33.721Z,74.50
2018-08-12T04:25:02.128Z,74.70
2018-08-12T04:27:30.735Z,74.90
2018-08-12T04:29:59.823Z,75.00
2018-08-12T04:32:28.582Z,75.00
2018-08-12T04:34:57.345Z,76.10
2018-08-12T04:37:25.673Z,77.30
2018-08-12T04:39:55.617Z,77.30
2018-08-12T04:42:24.119Z,76.90
2018-08-12T04:44:52.779Z,76.90
2018-08-12T04:47:21.084Z,76.70
2018-08-12T04:49:49.610Z,76.70
2018-08-12T04:52:18.417Z,76.70
2018-08-12T04:54:46.886Z,76.70
2018-08-12T04:57:15.393Z,76.80
2018-08-12T04:59:43.764Z,76.80
2018-08-12T05:02:12.221Z,76.90
2018-08-12T05:04:40.914Z,77.30
2018-08-12T05:07:09.638Z,77.40
2018-08-12T05:09:38.415Z,77.70
2018-08-12T05:12:06.901Z,77.90
2018-08-12T05:14:43.884Z,77.90
2018-08-12T05:17:12.185Z,78.20
2018-08-12T05:19:40.480Z,77.70
2018-08-12T05:22:09.352Z,77.80
2018-08-12T05:24:37.828Z,78.00
2018-08-12T05:27:06.910Z,78.40
2018-08-12T05:29:35.355Z,78.70
2018-08-12T05:32:04.268Z,78.60
2018-08-12T05:34:32.979Z,79.30
2018-08-12T05:37:01.365Z,78.70
2018-08-12T05:39:29.971Z,78.70
2018-08-12T05:41:58.698Z,78.10
2018-08-12T05:44:27.119Z,78.30
2018-08-12T05:46:55.820Z,78.60
2018-08-12T05:49:24.393Z,78.60
2018-08-12T05:51:52.859Z,78.70
2018-08-12T05:54:21.504Z,77.80
2018-08-12T05:56:50.023Z,77.60
2018-08-12T05:59:18.466Z,77.70
2018-08-12T06:01:47.122Z,78.10
2018-08-12T06:04:15.820Z,78.50
2018-08-12T06:06:44.200Z,78.20
2018-08-12T06:09:12.939Z,77.60
2018-08-12T06:11:41.784Z,77.40
2018-08-12T06:14:10.432Z,77.80
2018-08-12T06:16:39.186Z,78.30
2018-08-12T06:19:07.589Z,78.20
2018-08-12T06:21:35.904Z,78.20
2018-08-12T06:24:04.827Z,78.70
2018-08-12T06:26:33.670Z,78.40
2018-08-12T06:29:02.384Z,78.10
2018-08-12T06:31:30.965Z,78.40
2018-08-12T06:33:59.758Z,78.60
2018-08-12T06:36:28.652Z,79.00
2018-08-12T06:38:57.132Z,78.20
2018-08-12T06:41:25.543Z,78.50
2018-08-12T06:43:54.185Z,78.10
2018-08-12T06:46:22.709Z,78.30
2018-08-12T06:48:51.243Z,78.40
2018-08-12T06:51:19.977Z,77.70
2018-08-12T06:53:48.856Z,78.20
2018-08-12T06:56:17.523Z,78.20
2018-08-12T06:58:46.155Z,77.90
2018-08-12T07:01:14.919Z,77.80
2018-08-12T07:03:43.725Z,77.50
2018-08-12T07:06:12.412Z,77.50
2018-08-12T07:08:40.778Z,77.80
2018-08-12T07:11:09.199Z,77.10
2018-08-12T07:13:37.744Z,77.20
2018-08-12T07:16:06.232Z,77.30
2018-08-12T07:18:34.811Z,76.90
2018-08-12T07:21:03.787Z,77.00
2018-08-12T07:23:32.313Z,77.00
2018-08-12T07:26:01.188Z,76.80
2018-08-12T07:28:29.615Z,77.30
2018-08-12T07:30:58.117Z,77.00
2018-08-12T07:33:26.604Z,76.60
2018-08-12T07:35:55.223Z,76.10
2018-08-12T07:38:23.775Z,75.10
2018-08-12T07:40:52.271Z,75.60
2018-08-12T07:43:20.790Z,75.90
2018-08-12T07:45:49.259Z,76.30
2018-08-12T07:48:17.616Z,76.10
2018-08-12T07:50:46.108Z,76.80
2018-08-12T07:53:14.548Z,76.50
2018-08-12T07:55:43.016Z,76.20
2018-08-12T07:58:11.422Z,76.40
2018-08-12T08:00:40.099Z,76.10
2018-08-12T08:03:08.548Z,77.40
2018-08-12T08:05:37.147Z,76.90
2018-08-12T08:08:05.737Z,76.60
2018-08-12T08:10:34.646Z,77.00
2018-08-12T08:13:03.187Z,76.80
2018-08-12T08:15:32.267Z,77.20
2018-08-12T08:18:00.672Z,77.70
2018-08-12T08:20:29.565Z,77.20
2018-08-12T08:22:58.178Z,75.80
2018-08-12T08:25:26.759Z,76.50
2018-08-12T08:27:55.204Z,76.50
2018-08-12T08:30:23.659Z,75.50
2018-08-12T08:32:52.197Z,74.60
2018-08-12T08:35:20.628Z,75.00
2018-08-12T08:37:49.469Z,75.10
2018-08-12T08:40:17.982Z,73.50
2018-08-12T08:42:46.833Z,73.50
2018-08-12T08:45:17.825Z,73.60
2018-08-12T08:47:47.604Z,72.60
2018-08-12T08:51:18.628Z,72.80
2018-08-12T08:53:47.068Z,71.50
2018-08-12T08:56:15.521Z,69.80
2018-08-12T08:58:44.343Z,68.10
2018-08-12T09:01:12.993Z,69.90
2018-08-12T09:03:41.753Z,70.30
2018-08-12T09:06:10.167Z,69.50
2018-08-12T09:08:39.218Z,69.00
2018-08-12T09:11:07.795Z,69.30
2018-08-12T09:13:36.568Z,69.00
2018-08-12T09:16:05.508Z,68.20
2018-08-12T09:18:34.080Z,68.00
2018-08-12T09:21:02.560Z,68.70
2018-08-12T09:23:31.055Z,69.20
2018-08-12T09:25:59.632Z,69.50
2018-08-12T09:28:27.959Z,69.40
2018-08-12T09:30:56.839Z,68.50
2018-08-12T09:33:25.300Z,68.80
2018-08-12T09:35:53.644Z,69.20
2018-08-12T09:38:21.967Z,68.80
2018-08-12T09:40:50.679Z,69.10
2018-08-12T09:43:19.137Z,68.60
2018-08-12T09:45:47.494Z,68.20
2018-08-12T09:48:15.910Z,68.20
2018-08-12T09:50:44.686Z,68.40
2018-08-12T09:53:13.208Z,68.00
2018-08-12T09:55:41.776Z,66.10
2018-08-12T09:58:10.428Z,67.50
2018-08-12T10:00:40.281Z,66.90
2018-08-12T10:03:09.684Z,67.10
2018-08-12T10:05:38.409Z,64.70
2018-08-12T10:08:07.065Z,64.10
2018-08-12T10:10:36.070Z,66.10
2018-08-12T10:13:04.815Z,63.60
2018-08-12T10:15:45.394Z,61.90
2018-08-12T10:18:13.957Z,61.20
2018-08-12T10:20:42.696Z,61.40
2018-08-12T10:23:11.140Z,61.10
2018-08-12T10:25:39.596Z,61.70
2018-08-12T10:28:08.306Z,60.80
2018-08-12T10:30:37.221Z,60.60
2018-08-12T10:33:06.448Z,61.00
2018-08-12T10:35:35.048Z,59.00
2018-08-12T10:38:04.020Z,59.90
2018-08-12T10:40:32.607Z,60.60
2018-08-12T10:43:01.017Z,59.90
2018-08-12T10:45:29.716Z,59.50
2018-08-12T10:47:58.178Z,60.10
2018-08-12T10:50:26.572Z,59.10
2018-08-12T10:52:58.050Z,59.80
2018-08-12T10:55:26.908Z,60.80
2018-08-12T10:57:55.342Z,59.50
2018-08-12T11:00:29.119Z,56.60
2018-08-12T11:02:57.584Z,55.60
2018-08-12T11:05:26.469Z,55.90
2018-08-12T11:07:57.705Z,55.30
2018-08-12T11:10:27.025Z,54.00
2018-08-12T11:12:55.641Z,54.90
2018-08-12T11:15:58.419Z,55.00
2018-08-12T11:18:26.841Z,53.20
2018-08-12T11:20:55.278Z,53.40
2018-08-12T11:23:23.739Z,54.90
2018-08-12T11:25:52.409Z,54.60
2018-08-12T11:28:21.250Z,56.10
2018-08-12T11:30:49.566Z,54.60
2018-08-12T11:33:18.432Z,54.00
2018-08-12T11:35:47.283Z,53.50
2018-08-12T11:38:15.792Z,54.60
2018-08-12T11:40:44.353Z,49.20
2018-08-12T11:43:12.979Z,48.50
2018-08-12T11:45:41.945Z,49.00
2018-08-12T11:48:10.603Z,48.80
2018-08-12T11:50:39.376Z,47.50
2018-08-12T11:53:08.087Z,44.20
2018-08-12T11:55:36.675Z,38.60
2018-08-12T11:58:11.967Z,37.20
2018-08-12T12:00:40.719Z,37.00
2018-08-12T12:03:09.602Z,36.40
2018-08-12T12:05:38.036Z,35.50
2018-08-12T12:08:07.095Z,35.10
2018-08-12T12:10:36.292Z,34.20
2018-08-12T12:13:05.361Z,34.30
2018-08-12T12:16:06.452Z,35.70
2018-08-12T12:18:35.051Z,35.50
2018-08-12T12:21:03.776Z,35.10
2018-08-12T12:23:32.231Z,37.00
2018-08-12T12:26:00.791Z,35.40
2018-08-12T12:28:29.540Z,34.20
2018-08-12T12:30:58.553Z,33.90
2018-08-12T12:33:26.988Z,33.60
2018-08-12T12:35:55.775Z,32.50
2018-08-12T12:38:24.648Z,33.10
2018-08-12T12:40:53.099Z,31.10
2018-08-12T12:43:21.893Z,31.20
2018-08-12T12:45:50.767Z,29.70
2018-08-12T12:48:19.337Z,31.50
2018-08-12T12:50:47.793Z,29.80
2018-08-12T12:53:16.348Z,29.90
2018-08-12T12:55:44.940Z,30.20
2018-08-12T12:58:13.263Z,30.20
2018-08-12T13:00:41.911Z,29.20
2018-08-12T13:03:10.403Z,28.80
2018-08-12T13:05:39.104Z,29.00
2018-08-12T13:08:08.007Z,29.60
2018-08-12T13:10:37.096Z,30.60
2018-08-12T13:13:06.098Z,31.50
2018-08-12T13:18:53.608Z,32.40
2018-08-12T13:21:22.280Z,33.80
2018-08-12T13:23:50.675Z,35.60
2018-08-12T13:26:19.270Z,35.20
2018-08-12T13:28:47.703Z,36.20
2018-08-12T13:31:16.104Z,35.90
2018-08-12T13:33:44.903Z,36.40
2018-08-12T13:36:13.609Z,36.50
2018-08-12T13:38:42.112Z,36.90
2018-08-12T13:41:10.479Z,37.80
2018-08-12T13:43:39.051Z,38.30
2018-08-12T13:46:07.533Z,38.30
2018-08-12T13:48:35.894Z,38.00
2018-08-12T13:51:04.742Z,36.60
2018-08-12T13:53:33.251Z,37.50
2018-08-12T13:56:01.747Z,37.60
2018-08-12T13:58:30.300Z,36.40
2018-08-12T14:00:59.151Z,36.30
2018-08-12T14:03:27.561Z,34.70
2018-08-12T14:05:56.007Z,34.10
2018-08-12T14:08:24.815Z,32.50
2018-08-12T14:10:53.243Z,33.00
2018-08-12T14:13:22.200Z,32.20
2018-08-12T14:16:37.166Z,31.70
2018-08-12T14:19:06.058Z,31.90
2018-08-12T14:21:35.436Z,33.60
2018-08-12T14:24:04.623Z,33.10
2018-08-12T14:26:32.889Z,33.80
2018-08-12T14:29:01.627Z,33.00
2018-08-12T14:31:30.152Z,33.20
2018-08-12T14:33:58.800Z,33.50
2018-08-12T14:36:27.224Z,32.10
2018-08-12T14:38:55.640Z,30.10
2018-08-12T14:41:24.429Z,31.30
2018-08-12T14:43:52.856Z,34.20
2018-08-12T14:46:21.536Z,34.00
2018-08-12T14:48:49.883Z,33.50
2018-08-12T14:51:18.908Z,33.90
2018-08-12T14:53:47.402Z,33.00
2018-08-12T14:56:16.084Z,33.90
2018-08-12T14:58:44.544Z,32.20
2018-08-12T15:01:12.991Z,31.50
2018-08-12T15:03:41.605Z,31.50
2018-08-12T15:06:10.063Z,30.10
2018-08-12T15:08:38.906Z,29.10
2018-08-12T15:11:07.427Z,27.90
2018-08-12T15:13:35.887Z,27.40
2018-08-12T15:16:47.228Z,29.50
2018-08-12T15:19:15.808Z,30.00
2018-08-12T15:21:44.638Z,32.30
2018-08-12T15:24:13.112Z,33.60
2018-08-12T15:26:41.635Z,30.00
2018-08-12T15:29:10.158Z,28.70
2018-08-12T15:31:38.633Z,29.20
2018-08-12T15:34:07.708Z,29.40
2018-08-12T15:36:36.328Z,29.60
2018-08-12T15:39:08.883Z,30.10
2018-08-12T15:41:37.820Z,30.60
2018-08-12T15:44:06.557Z,27.30
2018-08-12T15:46:35.194Z,27.60
2018-08-12T15:49:03.742Z,28.30
2018-08-12T15:51:32.207Z,30.40
2018-08-12T15:54:00.770Z,31.50
2018-08-12T15:56:29.504Z,31.10
2018-08-12T15:58:58.055Z,30.70
2018-08-12T16:01:26.727Z,28.90
2018-08-12T16:03:55.725Z,29.70
2018-08-12T16:06:24.619Z,30.00
2018-08-12T16:08:53.421Z,31.80
2018-08-12T16:11:29.512Z,32.90
2018-08-12T16:13:58.049Z,31.60
2018-08-12T16:16:58.852Z,32.30
2018-08-12T16:19:27.555Z,32.90
2018-08-12T16:21:56.368Z,33.00
2018-08-12T16:24:24.716Z,33.80
2018-08-12T16:26:53.132Z,33.80
2018-08-12T16:29:21.640Z,34.20
2018-08-12T16:31:50.194Z,34.20
2018-08-12T16:34:18.954Z,33.40
2018-08-12T16:36:47.608Z,33.80
2018-08-12T16:39:16.024Z,33.70
2018-08-12T16:41:44.981Z,32.70
2018-08-12T16:44:13.742Z,33.30
2018-08-12T16:46:42.394Z,32.40
2018-08-12T16:49:11.307Z,32.70
2018-08-12T16:51:39.756Z,31.10
2018-08-12T16:54:08.206Z,31.20
2018-08-12T16:56:37.007Z,31.40
2018-08-12T16:59:05.969Z,31.90
2018-08-12T17:01:34.424Z,32.80
2018-08-12T17:04:03.269Z,32.30
2018-08-12T17:06:31.736Z,31.80
2018-08-12T17:09:00.513Z,31.50
2018-08-12T17:11:32.176Z,31.20
2018-08-12T17:14:00.867Z,31.80
2018-08-12T17:16:47.753Z,32.70
2018-08-12T17:19:16.559Z,35.00
2018-08-12T17:21:44.936Z,37.00
2018-08-12T17:24:13.240Z,38.70
2018-08-12T17:26:41.992Z,39.40
2018-08-12T17:29:10.511Z,39.30
2018-08-12T17:31:39.402Z,39.60
2018-08-12T17:34:07.783Z,39.60
2018-08-12T17:36:36.524Z,39.90
2018-08-12T17:39:07.875Z,40.40
2018-08-12T17:41:36.427Z,40.40
2018-08-12T17:44:05.200Z,40.30
2018-08-12T17:46:34.008Z,40.50
2018-08-12T17:49:02.528Z,40.80
2018-08-12T17:51:31.119Z,41.00
2018-08-12T17:54:00.349Z,41.00
2018-08-12T17:56:29.436Z,41.00
2018-08-12T17:58:58.609Z,40.90
2018-08-12T18:01:27.304Z,40.90
2018-08-12T18:03:56.047Z,40.90
2018-08-12T18:06:24.959Z,41.20
2018-08-12T18:08:53.660Z,41.90
2018-08-12T18:11:29.018Z,41.90
2018-08-12T18:13:57.634Z,41.90
2018-08-12T18:17:14.007Z,41.80
2018-08-12T18:19:42.558Z,41.70
2018-08-12T18:22:11.179Z,41.40
2018-08-12T18:24:39.763Z,41.90
2018-08-12T18:27:08.533Z,42.40
2018-08-12T18:29:37.210Z,43.40
2018-08-12T18:32:05.783Z,43.60
2018-08-12T18:34:34.179Z,44.10
2018-08-12T18:37:03.166Z,44.30
2018-08-12T18:39:31.849Z,44.30
2018-08-12T18:42:00.332Z,44.50
2018-08-12T18:44:29.794Z,44.90
2018-08-12T18:46:59.150Z,44.90
2018-08-12T18:49:29.116Z,45.00
2018-08-12T18:51:58.008Z,45.50
2018-08-12T18:54:27.514Z,45.80
2018-08-12T18:56:57.180Z,45.80
2018-08-12T18:59:26.881Z,45.90
2018-08-12T19:01:56.844Z,46.30
2018-08-12T19:04:26.125Z,46.30
2018-08-12T19:06:55.348Z,46.40
2018-08-12T19:09:24.468Z,46.30
2018-08-12T19:11:54.012Z,46.40
2018-08-12T19:14:39.825Z,46.50
2018-08-12T19:17:29.530Z,46.60
2018-08-12T19:19:59.952Z,46.50
2018-08-12T19:22:29.084Z,46.70
2018-08-12T19:25:00.292Z,46.90
2018-08-12T19:27:29.455Z,46.90
2018-08-12T19:30:00.207Z,46.80
2018-08-12T19:32:29.987Z,46.70
2018-08-12T19:35:01.180Z,47.00
2018-08-12T19:37:30.412Z,47.10
2018-08-12T19:40:01.144Z,46.90
2018-08-12T19:42:31.124Z,46.90
2018-08-12T19:45:01.795Z,46.90
2018-08-12T19:47:30.971Z,47.30
2018-08-12T19:50:01.915Z,47.40
2018-08-12T19:52:31.235Z,47.30
2018-08-12T19:55:02.347Z,47.40
2018-08-12T19:57:32.385Z,47.50
2018-08-12T20:00:02.074Z,47.50
2018-08-12T20:02:31.307Z,47.90
2018-08-12T20:05:02.057Z,47.80
2018-08-12T20:07:31.317Z,48.00
2018-08-12T20:10:02.242Z,48.20
2018-08-12T20:12:32.316Z,48.20
2018-08-12T20:15:43.625Z,48.40
2018-08-12T20:18:13.535Z,48.10
2018-08-12T20:20:43.081Z,48.30
2018-08-12T20:23:13.164Z,49.00
2018-08-12T20:26:07.882Z,49.30
2018-08-12T20:28:38.028Z,49.30
2018-08-12T20:31:08.045Z,49.10
2018-08-12T20:33:37.841Z,48.70
2018-08-12T20:36:07.134Z,49.10
2018-08-12T20:38:36.873Z,49.60
2018-08-12T20:41:06.036Z,49.70
2018-08-12T20:43:35.225Z,49.60
2018-08-12T20:46:04.436Z,49.80
2018-08-12T20:48:34.477Z,50.20
2018-08-12T20:51:03.502Z,50.20
2018-08-12T20:53:43.809Z,49.90
2018-08-12T20:56:12.862Z,50.10
2018-08-12T20:58:41.777Z,50.20
2018-08-12T21:01:11.107Z,50.40
2018-08-12T21:03:39.889Z,50.60
2018-08-12T21:06:08.782Z,50.70
2018-08-12T21:08:37.375Z,50.90
2018-08-12T21:11:06.180Z,51.10
2018-08-12T21:13:34.644Z,51.20
2018-08-12T21:19:28.985Z,50.30
2018-08-12T21:21:57.791Z,50.70
2018-08-12T21:24:26.762Z,50.90
2018-08-12T21:26:55.179Z,51.00
2018-08-12T21:29:23.756Z,51.80
2018-08-12T21:31:52.298Z,51.00
2018-08-12T21:34:21.659Z,50.80
2018-08-12T21:36:50.180Z,50.60
2018-08-12T21:39:18.627Z,50.60
2018-08-12T21:41:47.056Z,50.50
2018-08-12T21:44:15.573Z,50.60
2018-08-12T21:46:44.235Z,50.80
2018-08-12T21:49:12.695Z,50.80
2018-08-12T21:51:41.148Z,50.90
2018-08-12T21:54:09.654Z,50.90
2018-08-12T21:56:38.227Z,51.00
2018-08-12T21:59:06.705Z,51.20
2018-08-12T22:01:35.346Z,51.30
2018-08-12T22:04:03.867Z,51.40
2018-08-12T22:06:32.262Z,51.50
2018-08-12T22:09:00.724Z,51.70
2018-08-12T22:11:30.155Z,52.10
2018-08-12T22:13:58.571Z,52.10
2018-08-12T22:16:26.957Z,52.00
2018-08-12T22:18:55.432Z,52.00
2018-08-12T22:21:23.902Z,52.20
2018-08-12T22:23:53.271Z,52.20
2018-08-12T22:26:22.762Z,52.30
2018-08-12T22:28:56.500Z,52.40
2018-08-12T22:31:24.976Z,52.50
2018-08-12T22:33:53.489Z,52.60
2018-08-12T22:36:22.082Z,52.60
2018-08-12T22:38:50.552Z,52.60
2018-08-12T22:41:19.010Z,52.80
2018-08-12T22:43:47.527Z,52.70
2018-08-12T22:46:15.959Z,52.90
2018-08-12T22:48:44.340Z,53.20
2018-08-12T22:51:12.811Z,53.30
2018-08-12T22:53:41.162Z,53.50
2018-08-12T22:56:09.648Z,53.50
2018-08-12T22:58:38.483Z,53.50
2018-08-12T23:01:08.002Z,53.60
2018-08-12T23:03:36.523Z,53.50
2018-08-12T23:06:05.016Z,53.70
2018-08-12T23:08:33.543Z,53.90
2018-08-12T23:11:01.844Z,53.90
2018-08-12T23:13:30.259Z,54.20
2018-08-12T23:16:13.002Z,54.10
2018-08-12T23:18:41.426Z,54.10
2018-08-12T23:21:11.847Z,54.10
2018-08-12T23:23:41.660Z,54.00
2018-08-12T23:26:11.606Z,54.10
2018-08-12T23:28:40.184Z,54.10
2018-08-12T23:31:09.040Z,54.10
2018-08-12T23:33:38.025Z,54.30
2018-08-12T23:36:06.548Z,54.40
2018-08-12T23:38:35.226Z,54.40
2018-08-12T23:41:03.700Z,54.70
2018-08-12T23:43:32.293Z,54.70
2018-08-12T23:46:00.724Z,54.90
2018-08-12T23:48:29.756Z,55.10
2018-08-12T23:50:58.327Z,55.40
2018-08-12T23:53:26.703Z,55.40
2018-08-12T23:55:55.151Z,55.60
2018-08-12T23:58:23.695Z,55.80
